Time;durP1;ratioP1;P1;durP2;ratioP2;P2;SDS_P1;SDS_P2;PMS_P1;PMS_P2;Temp;Humidity;BMP_temperature;BMP_pressure;BME280_temperature;BME280_humidity;BME280_pressure;Samples;Min_cycle;Max_cycle;Signal;HPM_P1;HPM_P2
2021/10/20 00:00:11;;;;;;;40.67;30.13;;;;;;;6.48;100.00;99465.38;2071552;28;20232;-75
2021/10/20 00:01:13;;;;;;;38.67;29.40;;;;;;;6.50;100.00;99459.81;2072515;28;20231;-74
2021/10/20 00:02:15;;;;;;;39.50;29.77;;;;;;;6.52;100.00;99463.03;2071594;28;20299;-75
2021/10/20 00:03:17;;;;;;;37.95;30.77;;;;;;;6.54;100.00;99460.91;2063844;28;20706;-75
2021/10/20 00:04:19;;;;;;;37.42;30.58;;;;;;;6.55;100.00;99464.34;2071534;28;20266;-74
2021/10/20 00:05:20;;;;;;;42.95;30.33;;;;;;;6.56;100.00;99458.00;2071579;28;20224;-75
2021/10/20 00:06:22;;;;;;;40.15;30.88;;;;;;;6.58;100.00;99459.31;2071627;28;20220;-74
2021/10/20 00:07:22;;;;;;;41.42;30.35;;;;;;;6.59;100.00;99455.63;2073834;28;20284;-75
2021/10/20 00:08:25;;;;;;;36.57;29.73;;;;;;;6.59;100.00;99455.63;2072315;28;20286;-75
2021/10/20 00:09:26;;;;;;;39.63;30.20;;;;;;;6.60;100.00;99457.19;2079656;28;20311;-75
2021/10/20 00:10:27;;;;;;;37.60;30.27;;;;;;;6.63;100.00;99463.88;2079725;28;20297;-75
2021/10/20 00:11:28;;;;;;;38.63;30.10;;;;;;;6.64;100.00;99460.94;2070972;28;20243;-74
2021/10/20 00:12:31;;;;;;;40.38;29.13;;;;;;;6.63;100.00;99454.06;2071547;28;20231;-75
2021/10/20 00:13:31;;;;;;;48.65;30.10;;;;;;;6.67;100.00;99456.97;2071575;28;20231;-75
2021/10/20 00:14:33;;;;;;;42.10;30.43;;;;;;;6.68;100.00;99455.91;2063480;28;20244;-75
2021/10/20 00:15:34;;;;;;;38.97;28.85;;;;;;;6.68;100.00;99447.94;2063651;28;20710;-75
2021/10/20 00:16:36;;;;;;;32.25;28.02;;;;;;;6.68;100.00;99454.06;2071508;28;20290;-75
2021/10/20 00:17:37;;;;;;;36.53;28.25;;;;;;;6.70;100.00;99446.66;2070969;28;20224;-76
2021/10/20 00:18:47;;;;;;;39.17;29.48;;;;;;;6.69;100.00;99444.25;2063362;28;20307;-75
2021/10/20 00:19:50;;;;;;;37.42;28.48;;;;;;;6.72;100.00;99444.53;2064312;28;20240;-75
2021/10/20 00:20:52;;;;;;;38.67;29.27;;;;;;;6.72;100.00;99441.88;2063604;28;20225;-75
2021/10/20 00:21:53;;;;;;;38.13;29.00;;;;;;;6.75;100.00;99444.00;2064797;28;20236;-75
2021/10/20 00:22:55;;;;;;;35.10;28.10;;;;;;;6.75;100.00;99438.69;2071275;28;20311;-75
2021/10/20 00:23:56;;;;;;;39.55;28.17;;;;;;;6.74;100.00;99438.97;2071140;28;20265;-75
2021/10/20 00:24:58;;;;;;;37.27;28.57;;;;;;;6.76;100.00;99437.63;2071575;28;20235;-75
2021/10/20 00:25:59;;;;;;;38.47;27.80;;;;;;;6.76;100.00;99440.28;2072330;28;20451;-74
2021/10/20 00:27:00;;;;;;;36.40;28.90;;;;;;;6.76;100.00;99442.94;2072331;28;20223;-74
2021/10/20 00:28:01;;;;;;;36.20;28.42;;;;;;;6.77;100.00;99447.19;2071385;28;20317;-74
2021/10/20 00:29:03;;;;;;;36.47;27.60;;;;;;;6.76;100.00;99442.94;2071664;28;20706;-75
2021/10/20 00:30:06;;;;;;;41.08;28.52;;;;;;;6.77;100.00;99436.56;2072024;28;20224;-74
2021/10/20 00:31:08;;;;;;;34.67;28.05;;;;;;;6.77;100.00;99436.56;2072181;28;20576;-75
2021/10/20 00:32:11;;;;;;;35.38;28.13;;;;;;;6.79;100.00;99431.03;2073542;28;20235;-75
2021/10/20 00:33:13;;;;;;;37.70;29.55;;;;;;;6.77;100.00;99428.63;2071933;28;20319;-75
2021/10/20 00:34:15;;;;;;;37.90;27.65;;;;;;;6.80;100.00;99430.78;2071537;28;20219;-75
2021/10/20 00:35:17;;;;;;;35.53;29.10;;;;;;;6.78;100.00;99422.28;2079651;28;20219;-75
2021/10/20 00:36:17;;;;;;;35.92;28.60;;;;;;;6.79;100.00;99429.19;2072263;28;20228;-74
2021/10/20 00:37:19;;;;;;;36.10;28.37;;;;;;;6.79;100.00;99429.19;2072097;28;20230;-74
2021/10/20 00:38:21;;;;;;;36.38;28.83;;;;;;;6.82;100.00;99427.06;2071334;28;20220;-74
2021/10/20 00:39:24;;;;;;;40.35;28.80;;;;;;;6.82;100.00;99429.72;2073039;28;20228;-74
2021/10/20 00:40:25;;;;;;;37.75;28.15;;;;;;;6.85;100.00;99437.13;2072039;28;20623;-75
2021/10/20 00:41:29;;;;;;;37.30;28.80;;;;;;;6.84;100.00;99428.38;2071480;28;20310;-74
2021/10/20 00:42:30;;;;;;;38.28;29.05;;;;;;;6.87;100.00;99432.38;2071552;28;20216;-74
2021/10/20 00:43:31;;;;;;;42.83;28.70;;;;;;;6.87;100.00;99430.53;2072287;28;20223;-74
2021/10/20 00:44:44;;;;;;;39.60;28.45;;;;;;;6.89;100.00;99433.72;2071441;28;20227;-74
2021/10/20 00:45:48;;;;;;;34.28;26.85;;;;;;;6.91;100.00;99430.78;2072110;28;20303;-74
2021/10/20 00:46:49;;;;;;;32.60;26.92;;;;;;;6.93;100.00;99429.47;2072272;28;20228;-74
2021/10/20 00:47:51;;;;;;;28.00;24.95;;;;;;;6.97;100.00;99429.75;2079065;28;20233;-74
2021/10/20 00:48:52;;;;;;;29.60;24.55;;;;;;;7.00;100.00;99429.22;2087252;28;20692;-76
2021/10/20 00:49:55;;;;;;;28.27;25.27;;;;;;;7.06;100.00;99425.50;2079534;28;20629;-75
2021/10/20 00:50:56;;;;;;;35.40;28.05;;;;;;;7.13;100.00;99425.25;2071889;28;20603;-75
2021/10/20 00:51:58;;;;;;;41.57;28.97;;;;;;;7.15;100.00;99420.47;2072169;28;20322;-75
2021/10/20 00:53:00;;;;;;;34.67;28.58;;;;;;;7.16;100.00;99417.56;2072095;28;20228;-75
2021/10/20 00:54:03;;;;;;;35.03;27.67;;;;;;;7.21;100.00;99420.22;2071255;28;20261;-75
2021/10/20 00:55:05;;;;;;;36.00;28.33;;;;;;;7.17;100.00;99411.19;2071588;28;20290;-75
2021/10/20 00:56:07;;;;;;;35.97;28.33;;;;;;;7.21;100.00;99422.88;2072291;28;20224;-75
2021/10/20 00:57:09;;;;;;;36.97;28.05;;;;;;;7.20;100.00;99423.13;2081037;28;20227;-75
2021/10/20 00:58:11;;;;;;;36.80;28.20;;;;;;;7.21;100.00;99417.56;2079562;28;20728;-75
2021/10/20 00:59:11;;;;;;;41.00;29.05;;;;;;;7.22;100.00;99416.50;2079487;28;21757;-75
2021/10/20 01:00:15;;;;;;;34.53;27.80;;;;;;;7.21;100.00;99419.41;2071301;28;20236;-75
2021/10/20 01:01:16;;;;;;;31.98;26.58;;;;;;;7.21;100.00;99422.06;2071376;28;20601;-75
2021/10/20 01:02:18;;;;;;;37.80;28.17;;;;;;;7.23;100.00;99418.09;2071412;28;20762;-74
2021/10/20 01:03:20;;;;;;;34.58;28.55;;;;;;;7.22;100.00;99413.06;2063183;28;20228;-75
2021/10/20 01:04:21;;;;;;;34.85;27.50;;;;;;;7.23;100.00;99407.47;2063187;28;20228;-75
2021/10/20 01:05:25;;;;;;;37.97;28.03;;;;;;;7.22;100.00;99394.50;2065042;28;20727;-75
2021/10/20 01:06:26;;;;;;;37.15;27.90;;;;;;;7.24;100.00;99398.47;2063522;28;20267;-75
2021/10/20 01:07:29;;;;;;;38.83;28.05;;;;;;;7.24;100.00;99398.47;2071352;28;20236;-75
2021/10/20 01:08:30;;;;;;;33.95;27.23;;;;;;;7.24;100.00;99397.66;2081086;28;20223;-75
2021/10/20 01:09:32;;;;;;;30.70;26.70;;;;;;;7.23;100.00;99391.56;2073783;28;20223;-75
2021/10/20 01:10:33;;;;;;;33.92;27.55;;;;;;;7.24;100.00;99387.03;2072968;28;20694;-74
2021/10/20 01:11:35;;;;;;;36.53;27.73;;;;;;;7.22;100.00;99384.66;2073086;28;20756;-74
2021/10/20 01:12:37;;;;;;;36.70;27.85;;;;;;;7.23;100.00;99377.50;2073652;28;20231;-74
2021/10/20 01:13:39;;;;;;;35.30;27.60;;;;;;;7.22;100.00;99376.69;2074423;28;20223;-75
2021/10/20 01:14:40;;;;;;;35.03;27.65;;;;;;;7.23;100.00;99380.94;2073089;28;20631;-74
2021/10/20 01:15:42;;;;;;;31.80;27.27;;;;;;;7.24;100.00;99385.19;2073723;28;20290;-74
2021/10/20 01:16:43;;;;;;;33.97;27.20;;;;;;;7.21;100.00;99377.78;2072649;28;20541;-74
2021/10/20 01:17:44;;;;;;;30.50;27.40;;;;;;;7.21;100.00;99375.13;2064713;28;20299;-74
2021/10/20 01:18:45;;;;;;;32.85;27.20;;;;;;;7.18;100.00;99370.31;2073066;28;20467;-74
2021/10/20 01:19:48;;;;;;;35.73;28.40;;;;;;;7.17;100.00;99371.38;2064713;28;20223;-74
2021/10/20 01:20:51;;;;;;;35.97;26.92;;;;;;;7.14;100.00;99365.81;2064815;28;20891;-74
2021/10/20 01:21:55;;;;;;;34.03;27.52;;;;;;;7.16;100.00;99367.16;2078901;28;20227;-74
2021/10/20 01:22:56;;;;;;;40.33;27.08;;;;;;;7.15;100.00;99368.22;2080920;28;20314;-74
2021/10/20 01:23:59;;;;;;;37.43;27.67;;;;;;;7.15;100.00;99370.88;2081036;28;20238;-75
2021/10/20 01:25:00;;;;;;;34.55;28.15;;;;;;;7.16;100.00;99361.84;2080884;28;20228;-75
2021/10/20 01:26:02;;;;;;;34.23;27.07;;;;;;;7.16;100.00;99363.69;2081066;28;20227;-75
2021/10/20 01:27:03;;;;;;;34.90;27.40;;;;;;;7.16;100.00;99363.69;2081014;28;20738;-75
2021/10/20 01:28:08;;;;;;;32.75;26.90;;;;;;;7.16;100.00;99361.84;2080905;28;20212;-75
2021/10/20 01:29:08;;;;;;;35.28;26.77;;;;;;;7.17;100.00;99368.72;2074988;28;20228;-76
2021/10/20 01:30:11;;;;;;;33.00;27.23;;;;;;;7.19;100.00;99373.78;2072822;28;20311;-75
2021/10/20 01:31:12;;;;;;;32.83;26.58;;;;;;;7.18;100.00;99367.66;2073027;28;20794;-75
2021/10/20 01:32:14;;;;;;;36.90;26.77;;;;;;;7.24;100.00;99369.25;2072750;28;20669;-75
2021/10/20 01:33:15;;;;;;;28.85;24.77;;;;;;;7.22;100.00;99371.41;2073050;28;20232;-75
2021/10/20 01:34:18;;;;;;;35.05;26.73;;;;;;;7.26;100.00;99369.78;2072876;28;20220;-74
2021/10/20 01:35:19;;;;;;;33.30;26.13;;;;;;;7.29;100.00;99363.94;2073495;28;20226;-74
2021/10/20 01:36:20;;;;;;;33.80;26.40;;;;;;;7.31;100.00;99377.75;2080928;28;20227;-74
2021/10/20 01:37:24;;;;;;;35.50;27.43;;;;;;;7.45;100.00;99379.84;2080974;28;20239;-75
2021/10/20 01:38:25;;;;;;;35.63;27.55;;;;;;;7.51;100.00;99376.16;2073782;28;20311;-75
2021/10/20 01:39:27;;;;;;;29.80;26.27;;;;;;;7.57;100.00;99373.22;2064567;28;20722;-75
2021/10/20 01:40:28;;;;;;;35.60;27.00;;;;;;;7.62;100.00;99367.88;2072617;28;20290;-74
2021/10/20 01:41:33;;;;;;;30.33;26.05;;;;;;;7.67;100.00;99366.28;2073283;28;20247;-75
2021/10/20 01:42:36;;;;;;;30.30;26.30;;;;;;;7.76;100.00;99364.69;2080723;28;20277;-75
2021/10/20 01:43:39;;;;;;;29.85;25.83;;;;;;;7.78;100.00;99370.50;2081045;28;20223;-75
2021/10/20 01:44:40;;;;;;;30.63;25.85;;;;;;;7.82;100.00;99369.72;2080465;28;20230;-75
2021/10/20 01:45:42;;;;;;;28.00;24.33;;;;;;;7.83;100.00;99367.84;2080947;28;20309;-75
2021/10/20 01:46:43;;;;;;;24.40;21.95;;;;;;;7.83;100.00;99363.34;2073679;28;20227;-75
2021/10/20 01:47:46;;;;;;;24.95;22.35;;;;;;;7.84;100.00;99359.63;2073698;28;20246;-75
2021/10/20 01:48:48;;;;;;;24.45;22.02;;;;;;;7.84;100.00;99361.47;2080385;28;20346;-75
2021/10/20 01:49:50;;;;;;;24.35;21.92;;;;;;;7.90;100.00;99361.16;2080905;28;20231;-75
2021/10/20 01:50:50;;;;;;;28.45;23.48;;;;;;;7.93;100.00;99357.19;2073381;28;20220;-75
2021/10/20 01:51:52;;;;;;;31.07;24.23;;;;;;;7.96;100.00;99361.16;2073533;28;20702;-75
2021/10/20 01:52:55;;;;;;;31.00;24.90;;;;;;;7.98;100.00;99362.47;2072251;28;20294;-76
2021/10/20 01:53:56;;;;;;;36.08;27.38;;;;;;;7.97;100.00;99363.53;2072590;28;20231;-75
2021/10/20 01:54:57;;;;;;;32.08;26.67;;;;;;;7.97;100.00;99357.44;2072687;28;20232;-75
2021/10/20 01:55:59;;;;;;;29.60;25.83;;;;;;;7.97;100.00;99355.56;2066502;28;20308;-75
2021/10/20 01:57:00;;;;;;;24.73;22.23;;;;;;;7.97;100.00;99354.78;2064597;28;20267;-75
2021/10/20 01:58:01;;;;;;;36.37;28.07;;;;;;;7.94;100.00;99346.28;2072694;28;20227;-75
2021/10/20 01:59:02;;;;;;;31.23;27.83;;;;;;;7.95;100.00;99349.75;2073153;28;20219;-75
2021/10/20 02:00:05;;;;;;;33.70;26.73;;;;;;;7.92;100.00;99343.13;2072452;28;20741;-75
2021/10/20 02:01:13;;;;;;;34.97;27.70;;;;;;;7.92;100.00;99345.78;2073502;28;20277;-75
2021/10/20 02:02:17;;;;;;;32.72;26.65;;;;;;;7.91;100.00;99344.19;2073370;28;20711;-75
2021/10/20 02:03:19;;;;;;;29.52;25.48;;;;;;;7.89;100.00;99351.59;2073414;28;20227;-75
2021/10/20 02:04:20;;;;;;;34.13;26.90;;;;;;;7.89;100.00;99346.28;2073043;28;20223;-75
2021/10/20 02:05:22;;;;;;;31.10;26.75;;;;;;;7.88;100.00;99344.72;2072490;28;20310;-75
2021/10/20 02:06:23;;;;;;;28.77;25.67;;;;;;;7.86;100.00;99346.84;2063944;28;20216;-75
2021/10/20 02:07:24;;;;;;;31.43;26.20;;;;;;;7.85;100.00;99339.94;2068504;28;20307;-75
2021/10/20 02:08:27;;;;;;;29.80;25.98;;;;;;;7.83;100.00;99342.09;2070993;28;20224;-75
2021/10/20 02:09:30;;;;;;;29.17;25.27;;;;;;;7.83;100.00;99341.28;2065703;28;20243;-75
2021/10/20 02:10:31;;;;;;;35.50;27.45;;;;;;;7.82;100.00;99348.47;2080756;28;20264;-75
2021/10/20 02:11:32;;;;;;;31.30;25.90;;;;;;;7.81;100.00;99346.06;2080772;28;20254;-74
2021/10/20 02:12:33;;;;;;;34.13;27.42;;;;;;;7.79;100.00;99335.72;2073058;28;20576;-75
2021/10/20 02:13:35;;;;;;;31.67;26.33;;;;;;;7.76;100.00;99336.25;2073215;28;20662;-75
2021/10/20 02:14:36;;;;;;;32.63;26.63;;;;;;;7.75;100.00;99341.84;2072362;28;20273;-75
2021/10/20 02:15:40;;;;;;;31.98;26.52;;;;;;;7.72;100.00;99339.72;2078321;28;20250;-76
2021/10/20 02:16:42;;;;;;;29.83;26.80;;;;;;;7.71;100.00;99352.19;2081439;28;20247;-75
2021/10/20 02:17:48;;;;;;;31.63;26.63;;;;;;;7.70;100.00;99341.84;2081559;28;20307;-75
2021/10/20 02:18:48;;;;;;;32.92;25.98;;;;;;;7.69;100.00;99340.25;2080683;28;20590;-74
2021/10/20 02:19:50;;;;;;;33.53;25.77;;;;;;;7.68;100.00;99336.81;2080074;28;20311;-75
2021/10/20 02:20:52;;;;;;;29.00;25.90;;;;;;;7.69;100.00;99343.72;2088789;28;20226;-75
2021/10/20 02:21:53;;;;;;;31.15;26.08;;;;;;;7.68;100.00;99344.00;2088292;28;20281;-75
2021/10/20 02:22:54;;;;;;;28.23;24.92;;;;;;;7.68;100.00;99344.00;2081154;28;20234;-75
2021/10/20 02:23:58;;;;;;;32.45;26.42;;;;;;;7.68;100.00;99347.44;2080723;28;20641;-75
2021/10/20 02:24:58;;;;;;;28.75;25.60;;;;;;;7.67;100.00;99337.88;2080644;28;20681;-75
2021/10/20 02:26:00;;;;;;;32.10;26.07;;;;;;;7.68;100.00;99338.69;2081449;28;20632;-75
2021/10/20 02:27:01;;;;;;;34.70;27.90;;;;;;;7.70;100.00;99345.28;2081509;28;20556;-75
2021/10/20 02:28:03;;;;;;;31.20;25.73;;;;;;;7.68;100.00;99333.38;2080420;28;20302;-75
2021/10/20 02:29:04;;;;;;;30.50;26.27;;;;;;;7.70;100.00;99337.34;2080593;28;20227;-75
2021/10/20 02:30:09;;;;;;;30.50;26.08;;;;;;;7.70;100.00;99331.22;2081241;28;20306;-76
2021/10/20 02:31:10;;;;;;;33.20;25.98;;;;;;;7.69;100.00;99325.13;2079892;28;20226;-75
2021/10/20 02:32:12;;;;;;;31.58;25.08;;;;;;;7.71;100.00;99325.63;2080587;28;20748;-75
2021/10/20 02:33:13;;;;;;;29.95;25.25;;;;;;;7.73;100.00;99326.19;2080366;28;20629;-75
2021/10/20 02:34:15;;;;;;;30.73;24.90;;;;;;;7.71;100.00;99319.53;2080237;28;20219;-75
2021/10/20 02:35:16;;;;;;;29.38;24.30;;;;;;;7.71;100.00;99324.84;2080464;28;20230;-75
2021/10/20 02:36:18;;;;;;;30.93;26.37;;;;;;;7.69;100.00;99322.47;2080453;28;20230;-75
2021/10/20 02:37:20;;;;;;;32.85;26.75;;;;;;;7.71;100.00;99322.19;2080612;28;20215;-75
2021/10/20 02:38:22;;;;;;;29.80;25.70;;;;;;;7.68;100.00;99318.22;2080586;28;20247;-75
2021/10/20 02:39:24;;;;;;;29.20;24.77;;;;;;;7.66;100.00;99309.75;2074134;28;20234;-75
2021/10/20 02:40:26;;;;;;;31.08;25.77;;;;;;;7.66;100.00;99323.00;2074634;28;20220;-75
2021/10/20 02:41:27;;;;;;;31.90;25.23;;;;;;;7.65;100.00;99313.47;2073086;28;20228;-75
2021/10/20 02:42:28;;;;;;;29.20;25.93;;;;;;;7.64;100.00;99319.81;2073099;28;20328;-75
2021/10/20 02:43:35;;;;;;;30.23;25.48;;;;;;;7.64;100.00;99322.47;2071879;28;20250;-75
2021/10/20 02:44:37;;;;;;;28.85;25.73;;;;;;;7.63;100.00;99312.91;2072249;28;20240;-75
2021/10/20 02:45:37;;;;;;;30.67;25.90;;;;;;;7.62;100.00;99314.78;2072022;28;20224;-75
2021/10/20 02:46:39;;;;;;;29.27;24.57;;;;;;;7.61;100.00;99309.75;2072411;28;20329;-75
2021/10/20 02:47:40;;;;;;;28.25;24.90;;;;;;;7.59;100.00;99304.72;2072300;28;20285;-75
2021/10/20 02:48:44;;;;;;;29.77;25.50;;;;;;;7.61;100.00;99307.09;2064152;28;20307;-75
2021/10/20 02:49:44;;;;;;;29.33;25.60;;;;;;;7.60;100.00;99300.97;2064409;28;20220;-76
2021/10/20 02:50:47;;;;;;;28.60;24.93;;;;;;;7.61;100.00;99307.88;2064159;28;20227;-75
2021/10/20 02:51:49;;;;;;;30.20;25.13;;;;;;;7.61;100.00;99301.78;2074419;28;20232;-75
2021/10/20 02:52:50;;;;;;;27.20;24.37;;;;;;;7.58;100.00;99304.97;2072490;28;20244;-75
2021/10/20 02:53:51;;;;;;;35.17;25.25;;;;;;;7.60;100.00;99300.19;2072229;28;20223;-75
2021/10/20 02:54:54;;;;;;;27.13;24.23;;;;;;;7.59;100.00;99301.25;2074636;28;20242;-76
2021/10/20 02:55:55;;;;;;;27.50;24.58;;;;;;;7.57;100.00;99298.09;2072949;28;20713;-75
2021/10/20 02:56:59;;;;;;;29.63;25.63;;;;;;;7.57;100.00;99298.09;2072030;28;20699;-75
2021/10/20 02:58:01;;;;;;;29.05;24.90;;;;;;;7.55;100.00;99297.53;2072234;28;20637;-75
2021/10/20 02:59:03;;;;;;;24.93;22.30;;;;;;;7.56;100.00;99304.47;2072903;28;20227;-75
2021/10/20 03:00:05;;;;;;;25.73;23.15;;;;;;;7.59;100.00;99301.25;2072701;28;20230;-75
2021/10/20 03:01:06;;;;;;;23.70;21.30;;;;;;;7.62;100.00;99292.75;2072821;28;20234;-75
2021/10/20 03:02:07;;;;;;;23.17;20.92;;;;;;;7.70;100.00;99297.50;2072465;28;20236;-75
2021/10/20 03:03:09;;;;;;;24.07;21.60;;;;;;;7.74;100.00;99298.56;2072282;28;20232;-75
2021/10/20 03:04:10;;;;;;;22.27;20.00;;;;;;;7.76;100.00;99300.94;2072132;28;20223;-75
2021/10/20 03:05:11;;;;;;;30.07;23.50;;;;;;;7.81;100.00;99296.38;2072766;28;20255;-75
2021/10/20 03:06:13;;;;;;;26.77;23.85;;;;;;;7.82;100.00;99298.00;2072030;28;20550;-75
2021/10/20 03:07:14;;;;;;;26.92;23.52;;;;;;;7.82;100.00;99305.19;2072041;28;20244;-75
2021/10/20 03:08:15;;;;;;;27.00;24.05;;;;;;;7.79;100.00;99301.19;2080336;28;20219;-75
2021/10/20 03:09:17;;;;;;;23.27;20.80;;;;;;;7.77;100.00;99303.31;2071956;28;20303;-75
2021/10/20 03:10:19;;;;;;;23.65;21.23;;;;;;;7.84;100.00;99305.69;2072165;28;20224;-75
2021/10/20 03:11:23;;;;;;;27.45;23.05;;;;;;;7.90;100.00;99304.59;2073513;28;20310;-75
2021/10/20 03:12:23;;;;;;;26.55;23.05;;;;;;;7.93;100.00;99302.19;2071252;28;20282;-75
2021/10/20 03:13:25;;;;;;;26.07;22.57;;;;;;;8.03;100.00;99308.53;2071930;28;20232;-75
2021/10/20 03:14:26;;;;;;;24.50;21.88;;;;;;;8.04;100.00;99300.28;2072819;28;20224;-75
2021/10/20 03:15:28;;;;;;;28.02;22.73;;;;;;;8.08;100.00;99296.03;2071809;28;20707;-75
2021/10/20 03:16:28;;;;;;;26.05;23.35;;;;;;;8.08;100.00;99289.88;2072002;28;20235;-75
2021/10/20 03:17:31;;;;;;;27.93;23.10;;;;;;;8.09;100.00;99292.28;2072719;28;20303;-75
2021/10/20 03:18:34;;;;;;;26.63;23.27;;;;;;;8.07;100.00;99288.31;2072860;28;20239;-75
2021/10/20 03:19:36;;;;;;;23.38;21.00;;;;;;;8.08;100.00;99289.88;2064144;28;20319;-75
2021/10/20 03:20:37;;;;;;;22.15;19.98;;;;;;;8.11;100.00;99289.38;2071495;28;20235;-74
2021/10/20 03:21:38;;;;;;;20.80;19.00;;;;;;;8.14;100.00;99283.50;2071584;28;20224;-74
2021/10/20 03:22:41;;;;;;;20.33;18.52;;;;;;;8.20;100.00;99283.19;2071934;28;20232;-74
2021/10/20 03:23:43;;;;;;;20.77;18.88;;;;;;;8.23;100.00;99277.31;2080003;28;20227;-74
2021/10/20 03:24:44;;;;;;;20.73;18.90;;;;;;;8.27;100.00;99282.91;2072806;28;20224;-75
2021/10/20 03:25:49;;;;;;;25.65;22.85;;;;;;;8.29;100.00;99277.31;2072640;28;20224;-74
2021/10/20 03:26:50;;;;;;;21.85;19.80;;;;;;;8.32;100.00;99282.84;2071917;28;20220;-75
2021/10/20 03:27:52;;;;;;;24.17;21.57;;;;;;;8.30;100.00;99274.38;2071995;28;20228;-75
2021/10/20 03:28:52;;;;;;;26.10;23.33;;;;;;;8.33;100.00;99276.47;2075610;28;20226;-76
2021/10/20 03:29:54;;;;;;;27.53;23.77;;;;;;;8.28;100.00;99268.53;2071817;28;20236;-75
2021/10/20 03:30:55;;;;;;;26.05;23.30;;;;;;;8.32;100.00;99268.75;2071481;28;20235;-74
2021/10/20 03:31:57;;;;;;;26.50;23.17;;;;;;;8.29;100.00;99274.66;2079496;28;20812;-75
2021/10/20 03:32:58;;;;;;;26.27;23.52;;;;;;;8.28;100.00;99273.84;2080843;28;20224;-75
2021/10/20 03:34:02;;;;;;;25.73;23.10;;;;;;;8.28;100.00;99281.03;2080775;28;20765;-75
2021/10/20 03:35:03;;;;;;;26.90;23.42;;;;;;;8.27;100.00;99280.25;2079964;28;20223;-75
2021/10/20 03:36:07;;;;;;;28.45;24.40;;;;;;;8.24;100.00;99278.13;2080036;28;20673;-76
2021/10/20 03:37:08;;;;;;;26.52;23.45;;;;;;;8.25;100.00;99276.25;2087677;28;20223;-76
2021/10/20 03:38:11;;;;;;;28.40;23.43;;;;;;;8.23;100.00;99281.84;2080011;28;20302;-75
2021/10/20 03:39:12;;;;;;;25.90;23.17;;;;;;;8.20;100.00;99283.19;2065415;28;20228;-75
2021/10/20 03:40:15;;;;;;;24.85;22.23;;;;;;;8.17;100.00;99282.97;2070511;28;20311;-75
2021/10/20 03:41:17;;;;;;;24.88;21.90;;;;;;;8.16;100.00;99281.34;2071895;28;20307;-75
2021/10/20 03:42:19;;;;;;;28.73;25.63;;;;;;;8.17;100.00;99283.75;2079617;28;20728;-74
2021/10/20 03:43:20;;;;;;;29.02;23.65;;;;;;;8.16;100.00;99282.13;2072644;28;20223;-75
2021/10/20 03:44:22;;;;;;;26.27;23.43;;;;;;;8.17;100.00;99282.97;2079975;28;20223;-75
2021/10/20 03:45:22;;;;;;;25.83;23.17;;;;;;;8.17;100.00;99283.75;2081617;28;20230;-75
2021/10/20 03:46:25;;;;;;;25.47;22.97;;;;;;;8.18;100.00;99285.34;2071792;28;20220;-75
2021/10/20 03:47:26;;;;;;;25.63;22.77;;;;;;;8.17;100.00;99280.31;2071689;28;20274;-75
2021/10/20 03:48:27;;;;;;;25.53;22.93;;;;;;;8.20;100.00;99279.75;2071930;28;20228;-75
2021/10/20 03:49:28;;;;;;;24.80;22.48;;;;;;;8.19;100.00;99275.50;2071728;28;20227;-75
2021/10/20 03:50:30;;;;;;;25.70;23.03;;;;;;;8.21;100.00;99268.03;2071758;28;20311;-75
2021/10/20 03:51:31;;;;;;;28.52;23.67;;;;;;;8.23;100.00;99268.56;2071575;28;20227;-75
2021/10/20 03:52:32;;;;;;;25.80;22.97;;;;;;;8.23;100.00;99273.88;2063617;28;20303;-75
2021/10/20 03:53:35;;;;;;;24.20;21.85;;;;;;;8.24;100.00;99267.47;2063867;28;20311;-75
2021/10/20 03:54:37;;;;;;;23.30;20.92;;;;;;;8.26;100.00;99272.53;2071992;28;20220;-75
2021/10/20 03:55:38;;;;;;;29.75;23.35;;;;;;;8.26;100.00;99275.19;2072139;28;20778;-74
2021/10/20 03:56:41;;;;;;;26.27;22.47;;;;;;;8.25;100.00;99271.72;2072483;28;20649;-75
2021/10/20 03:57:42;;;;;;;26.38;22.88;;;;;;;8.27;100.00;99263.50;2072480;28;20235;-75
2021/10/20 03:58:43;;;;;;;25.43;22.90;;;;;;;8.28;100.00;99265.88;2072515;28;20227;-75
2021/10/20 03:59:46;;;;;;;25.75;23.17;;;;;;;8.29;100.00;99264.81;2072444;28;20946;-75
2021/10/20 04:00:49;;;;;;;27.00;24.17;;;;;;;8.28;100.00;99268.53;2071609;28;20706;-74
2021/10/20 04:01:49;;;;;;;26.90;24.10;;;;;;;8.29;100.00;99269.31;2071299;28;20674;-75
2021/10/20 04:02:51;;;;;;;25.53;22.83;;;;;;;8.29;100.00;99264.81;2071749;28;20676;-75
2021/10/20 04:03:52;;;;;;;25.35;22.60;;;;;;;8.28;100.00;99271.19;2070995;28;20235;-76
2021/10/20 04:04:54;;;;;;;26.47;23.70;;;;;;;8.26;100.00;99260.06;2079915;28;20311;-75
2021/10/20 04:05:54;;;;;;;25.23;22.65;;;;;;;8.27;100.00;99261.63;2079801;28;20250;-75
2021/10/20 04:06:59;;;;;;;27.47;23.10;;;;;;;8.29;100.00;99266.66;2072266;28;20266;-75
2021/10/20 04:08:01;;;;;;;29.60;22.60;;;;;;;8.27;100.00;99256.31;2071322;28;20220;-75
2021/10/20 04:09:03;;;;;;;25.73;23.10;;;;;;;8.26;100.00;99259.25;2071789;28;20717;-75
2021/10/20 04:10:05;;;;;;;25.25;22.67;;;;;;;8.25;100.00;99266.41;2071638;28;20228;-75
2021/10/20 04:11:06;;;;;;;25.67;23.13;;;;;;;8.26;100.00;99265.38;2071884;28;20220;-75
2021/10/20 04:12:09;;;;;;;25.20;22.60;;;;;;;8.25;100.00;99266.41;2081428;28;20315;-76
2021/10/20 04:13:11;;;;;;;24.67;22.08;;;;;;;8.24;100.00;99270.13;2079726;28;20232;-75
2021/10/20 04:14:14;;;;;;;26.52;23.85;;;;;;;8.26;100.00;99269.88;2079552;28;20281;-74
2021/10/20 04:15:16;;;;;;;26.23;23.40;;;;;;;8.24;100.00;99267.47;2071526;28;20223;-75
2021/10/20 04:16:18;;;;;;;25.60;22.65;;;;;;;8.22;100.00;99267.75;2071770;28;20228;-75
2021/10/20 04:17:19;;;;;;;25.88;23.15;;;;;;;8.22;100.00;99264.31;2071601;28;20282;-75
2021/10/20 04:18:20;;;;;;;24.77;22.20;;;;;;;8.23;100.00;99269.34;2071786;28;20278;-75
2021/10/20 04:19:21;;;;;;;24.73;22.33;;;;;;;8.23;100.00;99271.22;2071599;28;20583;-75
2021/10/20 04:20:24;;;;;;;25.33;22.70;;;;;;;8.22;100.00;99259.00;2073292;28;20223;-76
2021/10/20 04:21:27;;;;;;;23.13;20.80;;;;;;;8.25;100.00;99261.09;2071472;28;20253;-74
2021/10/20 04:22:29;;;;;;;24.13;21.58;;;;;;;8.23;100.00;99256.06;2071703;28;20228;-74
2021/10/20 04:23:29;;;;;;;24.25;21.73;;;;;;;8.26;100.00;99248.63;2072347;28;20235;-75
2021/10/20 04:24:31;;;;;;;24.40;21.80;;;;;;;8.28;100.00;99255.25;2071479;28;20302;-75
2021/10/20 04:25:32;;;;;;;23.40;21.02;;;;;;;8.27;100.00;99245.69;2071726;28;20224;-75
2021/10/20 04:26:34;;;;;;;24.53;21.00;;;;;;;8.28;100.00;99238.50;2072308;28;20254;-75
2021/10/20 04:27:39;;;;;;;23.92;21.33;;;;;;;8.28;100.00;99244.63;2072189;28;20224;-75
2021/10/20 04:28:41;;;;;;;24.58;22.15;;;;;;;8.28;100.00;99243.81;2072666;28;20231;-75
2021/10/20 04:29:42;;;;;;;25.00;21.70;;;;;;;8.27;100.00;99247.56;2071532;28;20236;-75
2021/10/20 04:30:44;;;;;;;24.90;22.20;;;;;;;8.23;100.00;99234.78;2072196;28;20222;-74
2021/10/20 04:31:44;;;;;;;23.42;20.85;;;;;;;8.22;100.00;99235.06;2072380;28;20231;-75
2021/10/20 04:32:46;;;;;;;24.83;22.20;;;;;;;8.20;100.00;99239.88;2072318;28;20220;-75
2021/10/20 04:33:47;;;;;;;25.08;22.55;;;;;;;8.18;100.00;99236.72;2071396;28;20227;-75
2021/10/20 04:34:49;;;;;;;24.93;22.20;;;;;;;8.16;100.00;99230.84;2071302;28;20319;-75
2021/10/20 04:35:50;;;;;;;25.23;22.63;;;;;;;8.14;100.00;99231.13;2071443;28;20227;-75
2021/10/20 04:36:51;;;;;;;24.73;22.13;;;;;;;8.15;100.00;99223.94;2071689;28;20251;-75
2021/10/20 04:37:52;;;;;;;23.45;21.02;;;;;;;8.14;100.00;99235.66;2073139;28;20239;-75
2021/10/20 04:38:54;;;;;;;23.73;21.37;;;;;;;8.12;100.00;99222.66;2071520;28;20251;-75
2021/10/20 04:39:57;;;;;;;22.58;20.30;;;;;;;8.16;100.00;99228.19;2071216;28;20232;-75
2021/10/20 04:40:58;;;;;;;24.55;21.23;;;;;;;8.19;100.00;99231.13;2078429;28;20231;-75
2021/10/20 04:41:59;;;;;;;23.80;21.38;;;;;;;8.21;100.00;99228.19;2071941;28;20231;-75
2021/10/20 04:43:03;;;;;;;26.67;21.88;;;;;;;8.23;100.00;99218.06;2070871;28;20643;-75
2021/10/20 04:44:04;;;;;;;24.20;21.90;;;;;;;8.25;100.00;99220.44;2079561;28;20728;-75